sensor_id;sensor_type;location;lat;lon;timestamp;P1;durP1;ratioP1;P2;durP2;ratioP2
68072;SDS011;54862;51.502;7.446;2023-06-10T00:01:19;11.13;;;7.20;;
68072;SDS011;54862;51.502;7.446;2023-06-10T00:03:45;10.27;;;6.95;;
68072;SDS011;54862;51.502;7.446;2023-06-10T00:06:11;10.38;;;7.50;;
68072;SDS011;54862;51.502;7.446;2023-06-10T00:08:37;12.10;;;7.18;;
68072;SDS011;54862;51.502;7.446;2023-06-10T00:11:04;12.85;;;8.00;;
68072;SDS011;54862;51.502;7.446;2023-06-10T00:13:33;11.38;;;7.38;;
68072;SDS011;54862;51.502;7.446;2023-06-10T00:15:58;12.35;;;7.13;;
68072;SDS011;54862;51.502;7.446;2023-06-10T00:18:24;12.43;;;7.00;;
68072;SDS011;54862;51.502;7.446;2023-06-10T00:20:51;10.73;;;7.00;;
68072;SDS011;54862;51.502;7.446;2023-06-10T00:23:21;11.82;;;8.20;;
68072;SDS011;54862;51.502;7.446;2023-06-10T00:25:50;11.43;;;7.07;;
68072;SDS011;54862;51.502;7.446;2023-06-10T00:28:16;10.82;;;7.15;;
68072;SDS011;54862;51.502;7.446;2023-06-10T00:30:42;11.48;;;7.57;;
68072;SDS011;54862;51.502;7.446;2023-06-10T00:33:10;10.85;;;7.15;;
68072;SDS011;54862;51.502;7.446;2023-06-10T00:35:36;12.13;;;7.38;;
68072;SDS011;54862;51.502;7.446;2023-06-10T00:38:02;10.60;;;7.35;;
68072;SDS011;54862;51.502;7.446;2023-06-10T00:40:30;11.43;;;7.53;;
68072;SDS011;54862;51.502;7.446;2023-06-10T00:42:56;10.60;;;7.57;;
68072;SDS011;54862;51.502;7.446;2023-06-10T00:45:22;12.43;;;7.53;;
68072;SDS011;54862;51.502;7.446;2023-06-10T00:47:49;12.23;;;7.82;;
68072;SDS011;54862;51.502;7.446;2023-06-10T00:50:17;11.68;;;7.50;;
68072;SDS011;54862;51.502;7.446;2023-06-10T00:52:43;12.80;;;8.10;;
68072;SDS011;54862;51.502;7.446;2023-06-10T00:55:11;12.85;;;7.70;;
68072;SDS011;54862;51.502;7.446;2023-06-10T00:57:37;12.13;;;8.02;;
68072;SDS011;54862;51.502;7.446;2023-06-10T01:00:03;10.73;;;7.60;;
68072;SDS011;54862;51.502;7.446;2023-06-10T01:02:34;12.00;;;8.32;;
68072;SDS011;54862;51.502;7.446;2023-06-10T01:05:00;12.32;;;7.85;;
68072;SDS011;54862;51.502;7.446;2023-06-10T01:10:07;12.10;;;8.25;;
68072;SDS011;54862;51.502;7.446;2023-06-10T01:12:43;11.02;;;7.93;;
68072;SDS011;54862;51.502;7.446;2023-06-10T01:15:13;11.40;;;7.97;;
68072;SDS011;54862;51.502;7.446;2023-06-10T01:17:53;12.10;;;8.40;;
68072;SDS011;54862;51.502;7.446;2023-06-10T01:20:19;12.45;;;7.97;;
68072;SDS011;54862;51.502;7.446;2023-06-10T01:22:45;12.48;;;8.75;;
68072;SDS011;54862;51.502;7.446;2023-06-10T01:25:12;11.88;;;8.15;;
68072;SDS011;54862;51.502;7.446;2023-06-10T01:27:38;15.82;;;9.00;;
68072;SDS011;54862;51.502;7.446;2023-06-10T01:30:11;12.60;;;8.50;;
68072;SDS011;54862;51.502;7.446;2023-06-10T01:32:43;12.40;;;8.60;;
68072;SDS011;54862;51.502;7.446;2023-06-10T01:35:12;12.68;;;8.65;;
68072;SDS011;54862;51.502;7.446;2023-06-10T01:37:39;14.93;;;8.32;;
68072;SDS011;54862;51.502;7.446;2023-06-10T01:40:06;13.85;;;8.65;;
68072;SDS011;54862;51.502;7.446;2023-06-10T01:42:33;11.93;;;8.70;;
68072;SDS011;54862;51.502;7.446;2023-06-10T01:44:59;15.13;;;9.02;;
68072;SDS011;54862;51.502;7.446;2023-06-10T01:47:27;12.40;;;8.35;;
68072;SDS011;54862;51.502;7.446;2023-06-10T01:49:54;12.13;;;8.80;;
68072;SDS011;54862;51.502;7.446;2023-06-10T01:52:20;14.13;;;9.70;;
68072;SDS011;54862;51.502;7.446;2023-06-10T01:54:48;15.07;;;9.43;;
68072;SDS011;54862;51.502;7.446;2023-06-10T01:57:14;12.80;;;9.25;;
68072;SDS011;54862;51.502;7.446;2023-06-10T01:59:40;14.52;;;8.80;;
68072;SDS011;54862;51.502;7.446;2023-06-10T02:02:09;14.40;;;9.93;;
68072;SDS011;54862;51.502;7.446;2023-06-10T02:04:35;12.68;;;9.27;;
68072;SDS011;54862;51.502;7.446;2023-06-10T02:07:03;12.98;;;9.15;;
68072;SDS011;54862;51.502;7.446;2023-06-10T02:09:30;14.77;;;9.50;;
68072;SDS011;54862;51.502;7.446;2023-06-10T02:11:57;13.43;;;9.75;;
68072;SDS011;54862;51.502;7.446;2023-06-10T02:14:23;13.18;;;9.20;;
68072;SDS011;54862;51.502;7.446;2023-06-10T02:16:52;18.60;;;9.50;;
68072;SDS011;54862;51.502;7.446;2023-06-10T02:19:21;14.07;;;10.15;;
68072;SDS011;54862;51.502;7.446;2023-06-10T02:21:48;12.70;;;9.63;;
68072;SDS011;54862;51.502;7.446;2023-06-10T02:24:14;14.60;;;10.63;;
68072;SDS011;54862;51.502;7.446;2023-06-10T02:26:40;15.02;;;10.63;;
68072;SDS011;54862;51.502;7.446;2023-06-10T02:29:06;13.73;;;10.13;;
68072;SDS011;54862;51.502;7.446;2023-06-10T02:31:32;15.93;;;10.13;;
68072;SDS011;54862;51.502;7.446;2023-06-10T02:34:00;14.35;;;10.18;;
68072;SDS011;54862;51.502;7.446;2023-06-10T02:36:26;16.25;;;9.82;;
68072;SDS011;54862;51.502;7.446;2023-06-10T02:38:53;14.13;;;10.05;;
68072;SDS011;54862;51.502;7.446;2023-06-10T02:41:19;16.38;;;11.18;;
68072;SDS011;54862;51.502;7.446;2023-06-10T02:43:46;15.40;;;10.40;;
68072;SDS011;54862;51.502;7.446;2023-06-10T02:46:15;14.43;;;10.48;;
68072;SDS011;54862;51.502;7.446;2023-06-10T02:48:41;14.75;;;10.80;;
68072;SDS011;54862;51.502;7.446;2023-06-10T02:51:08;15.82;;;11.18;;
68072;SDS011;54862;51.502;7.446;2023-06-10T02:53:34;14.32;;;10.63;;
68072;SDS011;54862;51.502;7.446;2023-06-10T02:56:01;15.48;;;11.20;;
68072;SDS011;54862;51.502;7.446;2023-06-10T02:58:31;15.00;;;11.73;;
68072;SDS011;54862;51.502;7.446;2023-06-10T03:00:57;15.82;;;11.65;;
68072;SDS011;54862;51.502;7.446;2023-06-10T03:03:26;17.15;;;12.15;;
68072;SDS011;54862;51.502;7.446;2023-06-10T03:05:52;14.75;;;10.65;;
68072;SDS011;54862;51.502;7.446;2023-06-10T03:08:18;15.30;;;11.55;;
68072;SDS011;54862;51.502;7.446;2023-06-10T03:10:44;16.17;;;12.00;;
68072;SDS011;54862;51.502;7.446;2023-06-10T03:13:10;16.88;;;12.35;;
68072;SDS011;54862;51.502;7.446;2023-06-10T03:15:36;16.67;;;12.43;;
68072;SDS011;54862;51.502;7.446;2023-06-10T03:18:02;18.58;;;13.00;;
68072;SDS011;54862;51.502;7.446;2023-06-10T03:20:28;16.10;;;12.20;;
68072;SDS011;54862;51.502;7.446;2023-06-10T03:22:54;16.42;;;11.88;;
68072;SDS011;54862;51.502;7.446;2023-06-10T03:25:20;17.35;;;12.18;;
68072;SDS011;54862;51.502;7.446;2023-06-10T03:27:51;16.95;;;12.43;;
68072;SDS011;54862;51.502;7.446;2023-06-10T03:30:17;17.95;;;12.30;;
68072;SDS011;54862;51.502;7.446;2023-06-10T03:32:43;16.58;;;12.02;;
68072;SDS011;54862;51.502;7.446;2023-06-10T03:35:09;15.93;;;12.38;;
68072;SDS011;54862;51.502;7.446;2023-06-10T03:37:35;17.67;;;12.52;;
68072;SDS011;54862;51.502;7.446;2023-06-10T03:40:03;17.77;;;13.35;;
68072;SDS011;54862;51.502;7.446;2023-06-10T03:42:33;17.50;;;12.63;;
68072;SDS011;54862;51.502;7.446;2023-06-10T03:44:59;18.55;;;12.63;;
68072;SDS011;54862;51.502;7.446;2023-06-10T03:47:25;20.77;;;13.70;;
68072;SDS011;54862;51.502;7.446;2023-06-10T03:49:53;19.55;;;13.07;;
68072;SDS011;54862;51.502;7.446;2023-06-10T03:52:22;17.40;;;13.05;;
68072;SDS011;54862;51.502;7.446;2023-06-10T03:54:47;20.55;;;13.55;;
68072;SDS011;54862;51.502;7.446;2023-06-10T03:57:13;19.38;;;13.43;;
68072;SDS011;54862;51.502;7.446;2023-06-10T03:59:39;18.38;;;12.55;;
68072;SDS011;54862;51.502;7.446;2023-06-10T04:02:05;17.42;;;12.75;;
68072;SDS011;54862;51.502;7.446;2023-06-10T04:04:34;18.27;;;13.00;;
68072;SDS011;54862;51.502;7.446;2023-06-10T04:07:03;16.88;;;12.68;;
68072;SDS011;54862;51.502;7.446;2023-06-10T04:09:30;18.45;;;13.02;;
68072;SDS011;54862;51.502;7.446;2023-06-10T04:11:56;18.30;;;12.52;;
68072;SDS011;54862;51.502;7.446;2023-06-10T04:14:21;17.13;;;12.95;;
68072;SDS011;54862;51.502;7.446;2023-06-10T04:16:49;17.98;;;12.75;;
68072;SDS011;54862;51.502;7.446;2023-06-10T04:19:15;16.80;;;12.30;;
68072;SDS011;54862;51.502;7.446;2023-06-10T04:21:41;21.38;;;12.15;;
68072;SDS011;54862;51.502;7.446;2023-06-10T04:24:07;15.68;;;11.52;;
68072;SDS011;54862;51.502;7.446;2023-06-10T04:26:35;16.23;;;11.65;;
68072;SDS011;54862;51.502;7.446;2023-06-10T04:29:04;17.20;;;10.93;;
68072;SDS011;54862;51.502;7.446;2023-06-10T04:31:30;16.75;;;10.90;;
68072;SDS011;54862;51.502;7.446;2023-06-10T04:33:57;16.75;;;10.82;;
68072;SDS011;54862;51.502;7.446;2023-06-10T04:36:23;16.13;;;10.82;;
68072;SDS011;54862;51.502;7.446;2023-06-10T04:38:49;16.92;;;11.15;;
68072;SDS011;54862;51.502;7.446;2023-06-10T04:41:17;19.67;;;11.32;;
68072;SDS011;54862;51.502;7.446;2023-06-10T04:43:43;16.30;;;10.98;;
68072;SDS011;54862;51.502;7.446;2023-06-10T04:46:11;15.18;;;9.82;;
68072;SDS011;54862;51.502;7.446;2023-06-10T04:48:38;15.30;;;10.43;;
68072;SDS011;54862;51.502;7.446;2023-06-10T04:51:05;15.40;;;9.85;;
68072;SDS011;54862;51.502;7.446;2023-06-10T04:53:31;16.40;;;11.15;;
68072;SDS011;54862;51.502;7.446;2023-06-10T04:55:57;14.73;;;10.30;;
68072;SDS011;54862;51.502;7.446;2023-06-10T04:58:23;20.15;;;10.98;;
68072;SDS011;54862;51.502;7.446;2023-06-10T05:00:49;15.43;;;10.40;;
68072;SDS011;54862;51.502;7.446;2023-06-10T05:03:15;15.50;;;10.82;;
68072;SDS011;54862;51.502;7.446;2023-06-10T05:05:41;16.50;;;10.55;;
68072;SDS011;54862;51.502;7.446;2023-06-10T05:08:07;16.30;;;10.57;;
68072;SDS011;54862;51.502;7.446;2023-06-10T05:10:36;17.58;;;10.00;;
68072;SDS011;54862;51.502;7.446;2023-06-10T05:13:02;13.18;;;9.40;;
68072;SDS011;54862;51.502;7.446;2023-06-10T05:15:30;13.85;;;9.90;;
68072;SDS011;54862;51.502;7.446;2023-06-10T05:17:59;14.05;;;9.70;;
68072;SDS011;54862;51.502;7.446;2023-06-10T05:20:26;15.02;;;9.48;;
68072;SDS011;54862;51.502;7.446;2023-06-10T05:22:55;15.98;;;9.65;;
68072;SDS011;54862;51.502;7.446;2023-06-10T05:25:21;14.60;;;8.95;;
68072;SDS011;54862;51.502;7.446;2023-06-10T05:27:47;15.88;;;9.23;;
68072;SDS011;54862;51.502;7.446;2023-06-10T05:30:13;17.27;;;9.75;;
68072;SDS011;54862;51.502;7.446;2023-06-10T05:32:39;15.27;;;8.77;;
68072;SDS011;54862;51.502;7.446;2023-06-10T05:35:05;14.15;;;8.40;;
68072;SDS011;54862;51.502;7.446;2023-06-10T05:37:33;14.93;;;8.65;;
68072;SDS011;54862;51.502;7.446;2023-06-10T05:39:59;14.65;;;8.57;;
68072;SDS011;54862;51.502;7.446;2023-06-10T05:42:25;13.10;;;8.50;;
68072;SDS011;54862;51.502;7.446;2023-06-10T05:44:51;14.93;;;8.40;;
68072;SDS011;54862;51.502;7.446;2023-06-10T05:47:19;13.02;;;8.45;;
68072;SDS011;54862;51.502;7.446;2023-06-10T05:49:47;12.70;;;8.27;;
68072;SDS011;54862;51.502;7.446;2023-06-10T05:52:15;12.88;;;8.35;;
68072;SDS011;54862;51.502;7.446;2023-06-10T05:54:41;17.63;;;9.07;;
68072;SDS011;54862;51.502;7.446;2023-06-10T05:57:06;16.67;;;9.70;;
68072;SDS011;54862;51.502;7.446;2023-06-10T05:59:35;12.63;;;8.43;;
68072;SDS011;54862;51.502;7.446;2023-06-10T06:02:01;15.07;;;8.57;;
68072;SDS011;54862;51.502;7.446;2023-06-10T06:04:27;13.13;;;8.73;;
68072;SDS011;54862;51.502;7.446;2023-06-10T06:06:55;14.43;;;9.02;;
68072;SDS011;54862;51.502;7.446;2023-06-10T06:09:21;13.32;;;8.43;;
68072;SDS011;54862;51.502;7.446;2023-06-10T06:11:49;16.27;;;9.60;;
68072;SDS011;54862;51.502;7.446;2023-06-10T06:14:15;13.57;;;8.20;;
68072;SDS011;54862;51.502;7.446;2023-06-10T06:16:41;13.80;;;8.50;;
68072;SDS011;54862;51.502;7.446;2023-06-10T06:19:08;14.48;;;8.68;;
68072;SDS011;54862;51.502;7.446;2023-06-10T06:21:36;11.95;;;7.57;;
68072;SDS011;54862;51.502;7.446;2023-06-10T06:24:02;12.02;;;7.40;;
68072;SDS011;54862;51.502;7.446;2023-06-10T06:26:28;12.02;;;7.25;;
68072;SDS011;54862;51.502;7.446;2023-06-10T06:28:54;13.15;;;7.90;;
68072;SDS011;54862;51.502;7.446;2023-06-10T06:31:22;13.68;;;8.00;;
68072;SDS011;54862;51.502;7.446;2023-06-10T06:33:48;13.43;;;7.22;;
68072;SDS011;54862;51.502;7.446;2023-06-10T06:36:14;11.05;;;7.20;;
68072;SDS011;54862;51.502;7.446;2023-06-10T06:38:42;17.38;;;7.85;;
68072;SDS011;54862;51.502;7.446;2023-06-10T06:41:08;12.80;;;7.68;;
68072;SDS011;54862;51.502;7.446;2023-06-10T06:43:34;12.15;;;7.28;;
68072;SDS011;54862;51.502;7.446;2023-06-10T06:46:01;10.82;;;6.80;;
68072;SDS011;54862;51.502;7.446;2023-06-10T06:48:27;11.48;;;6.60;;
68072;SDS011;54862;51.502;7.446;2023-06-10T06:50:53;12.68;;;7.38;;
68072;SDS011;54862;51.502;7.446;2023-06-10T06:53:21;13.77;;;6.63;;
68072;SDS011;54862;51.502;7.446;2023-06-10T06:55:47;14.23;;;6.82;;
68072;SDS011;54862;51.502;7.446;2023-06-10T06:58:13;11.93;;;6.63;;
68072;SDS011;54862;51.502;7.446;2023-06-10T07:00:41;13.38;;;7.28;;
68072;SDS011;54862;51.502;7.446;2023-06-10T07:03:07;12.13;;;6.60;;
68072;SDS011;54862;51.502;7.446;2023-06-10T07:05:33;13.00;;;6.55;;
68072;SDS011;54862;51.502;7.446;2023-06-10T07:07:59;10.55;;;6.50;;
68072;SDS011;54862;51.502;7.446;2023-06-10T07:10:28;11.50;;;7.07;;
68072;SDS011;54862;51.502;7.446;2023-06-10T07:12:54;11.98;;;7.05;;
68072;SDS011;54862;51.502;7.446;2023-06-10T07:15:20;12.35;;;6.75;;
68072;SDS011;54862;51.502;7.446;2023-06-10T07:17:50;11.75;;;6.38;;
68072;SDS011;54862;51.502;7.446;2023-06-10T07:20:16;10.02;;;5.78;;
68072;SDS011;54862;51.502;7.446;2023-06-10T07:22:43;12.02;;;6.47;;
68072;SDS011;54862;51.502;7.446;2023-06-10T07:25:09;10.23;;;6.10;;
68072;SDS011;54862;51.502;7.446;2023-06-10T07:27:39;11.00;;;6.00;;
68072;SDS011;54862;51.502;7.446;2023-06-10T07:30:05;11.13;;;6.28;;
68072;SDS011;54862;51.502;7.446;2023-06-10T07:32:33;11.63;;;6.25;;
68072;SDS011;54862;51.502;7.446;2023-06-10T07:34:59;10.32;;;6.10;;
68072;SDS011;54862;51.502;7.446;2023-06-10T07:37:27;10.13;;;5.80;;
68072;SDS011;54862;51.502;7.446;2023-06-10T07:39:56;12.82;;;6.25;;
68072;SDS011;54862;51.502;7.446;2023-06-10T07:42:24;10.25;;;5.57;;
68072;SDS011;54862;51.502;7.446;2023-06-10T07:44:52;10.95;;;5.38;;
68072;SDS011;54862;51.502;7.446;2023-06-10T07:47:18;10.35;;;5.78;;
68072;SDS011;54862;51.502;7.446;2023-06-10T07:49:44;10.10;;;5.97;;
68072;SDS011;54862;51.502;7.446;2023-06-10T07:52:10;9.20;;;5.43;;
68072;SDS011;54862;51.502;7.446;2023-06-10T07:54:36;10.80;;;5.32;;
68072;SDS011;54862;51.502;7.446;2023-06-10T07:57:02;9.95;;;5.68;;
68072;SDS011;54862;51.502;7.446;2023-06-10T07:59:28;12.65;;;5.45;;
68072;SDS011;54862;51.502;7.446;2023-06-10T08:01:57;9.25;;;5.22;;
68072;SDS011;54862;51.502;7.446;2023-06-10T08:04:23;10.85;;;5.40;;
68072;SDS011;54862;51.502;7.446;2023-06-10T08:06:49;10.35;;;5.10;;
68072;SDS011;54862;51.502;7.446;2023-06-10T08:09:15;11.20;;;5.50;;
68072;SDS011;54862;51.502;7.446;2023-06-10T08:11:43;11.35;;;5.32;;
68072;SDS011;54862;51.502;7.446;2023-06-10T08:14:09;10.10;;;5.22;;
68072;SDS011;54862;51.502;7.446;2023-06-10T08:16:35;10.98;;;5.70;;
68072;SDS011;54862;51.502;7.446;2023-06-10T08:19:01;11.98;;;5.80;;
68072;SDS011;54862;51.502;7.446;2023-06-10T08:21:27;10.43;;;5.18;;
68072;SDS011;54862;51.502;7.446;2023-06-10T08:23:53;9.77;;;5.70;;
68072;SDS011;54862;51.502;7.446;2023-06-10T08:26:19;9.70;;;5.28;;
68072;SDS011;54862;51.502;7.446;2023-06-10T08:28:48;11.00;;;5.57;;
68072;SDS011;54862;51.502;7.446;2023-06-10T08:31:14;12.65;;;5.53;;
68072;SDS011;54862;51.502;7.446;2023-06-10T08:33:41;9.82;;;5.43;;
68072;SDS011;54862;51.502;7.446;2023-06-10T08:36:07;12.68;;;5.85;;
68072;SDS011;54862;51.502;7.446;2023-06-10T08:38:35;13.88;;;6.60;;
68072;SDS011;54862;51.502;7.446;2023-06-10T08:41:01;15.07;;;5.43;;
68072;SDS011;54862;51.502;7.446;2023-06-10T08:43:33;14.05;;;5.78;;
68072;SDS011;54862;51.502;7.446;2023-06-10T08:46:00;12.65;;;5.97;;
68072;SDS011;54862;51.502;7.446;2023-06-10T08:48:29;10.07;;;5.28;;
68072;SDS011;54862;51.502;7.446;2023-06-10T08:50:56;11.38;;;5.53;;
68072;SDS011;54862;51.502;7.446;2023-06-10T08:53:22;9.60;;;5.40;;
68072;SDS011;54862;51.502;7.446;2023-06-10T08:55:52;9.93;;;5.28;;
68072;SDS011;54862;51.502;7.446;2023-06-10T08:58:19;9.90;;;4.90;;
68072;SDS011;54862;51.502;7.446;2023-06-10T09:00:45;9.93;;;4.93;;
68072;SDS011;54862;51.502;7.446;2023-06-10T09:03:11;11.05;;;5.35;;
68072;SDS011;54862;51.502;7.446;2023-06-10T09:05:37;11.00;;;5.60;;
68072;SDS011;54862;51.502;7.446;2023-06-10T09:08:05;10.20;;;5.07;;
68072;SDS011;54862;51.502;7.446;2023-06-10T09:10:34;9.73;;;5.13;;
68072;SDS011;54862;51.502;7.446;2023-06-10T09:13:03;12.00;;;5.55;;
68072;SDS011;54862;51.502;7.446;2023-06-10T09:15:31;9.55;;;5.25;;
68072;SDS011;54862;51.502;7.446;2023-06-10T09:17:57;8.90;;;4.93;;
68072;SDS011;54862;51.502;7.446;2023-06-10T09:20:24;9.18;;;5.32;;
68072;SDS011;54862;51.502;7.446;2023-06-10T09:22:50;10.05;;;5.25;;
68072;SDS011;54862;51.502;7.446;2023-06-10T09:25:16;9.68;;;5.63;;
68072;SDS011;54862;51.502;7.446;2023-06-10T09:27:46;12.00;;;5.90;;
68072;SDS011;54862;51.502;7.446;2023-06-10T09:30:28;9.55;;;5.32;;
68072;SDS011;54862;51.502;7.446;2023-06-10T09:32:55;8.88;;;4.85;;
68072;SDS011;54862;51.502;7.446;2023-06-10T09:35:22;9.02;;;5.38;;
68072;SDS011;54862;51.502;7.446;2023-06-10T09:37:49;10.70;;;5.43;;
68072;SDS011;54862;51.502;7.446;2023-06-10T09:40:15;9.10;;;5.18;;
68072;SDS011;54862;51.502;7.446;2023-06-10T09:42:41;8.35;;;5.10;;
68072;SDS011;54862;51.502;7.446;2023-06-10T09:45:07;10.50;;;5.10;;
68072;SDS011;54862;51.502;7.446;2023-06-10T09:47:34;11.00;;;4.95;;
68072;SDS011;54862;51.502;7.446;2023-06-10T09:50:00;10.50;;;5.88;;
68072;SDS011;54862;51.502;7.446;2023-06-10T09:52:27;11.05;;;5.63;;
68072;SDS011;54862;51.502;7.446;2023-06-10T09:54:58;10.05;;;5.22;;
68072;SDS011;54862;51.502;7.446;2023-06-10T09:57:25;9.85;;;5.05;;
68072;SDS011;54862;51.502;7.446;2023-06-10T09:59:54;10.95;;;5.88;;
68072;SDS011;54862;51.502;7.446;2023-06-10T10:02:20;10.38;;;5.32;;
68072;SDS011;54862;51.502;7.446;2023-06-10T10:04:46;9.68;;;5.38;;
68072;SDS011;54862;51.502;7.446;2023-06-10T10:07:12;8.48;;;4.90;;
68072;SDS011;54862;51.502;7.446;2023-06-10T10:09:39;9.30;;;5.38;;
68072;SDS011;54862;51.502;7.446;2023-06-10T10:12:07;10.00;;;5.43;;
68072;SDS011;54862;51.502;7.446;2023-06-10T10:14:35;9.75;;;5.80;;
68072;SDS011;54862;51.502;7.446;2023-06-10T10:17:04;11.85;;;5.95;;
68072;SDS011;54862;51.502;7.446;2023-06-10T10:19:33;11.05;;;5.95;;
68072;SDS011;54862;51.502;7.446;2023-06-10T10:22:02;10.50;;;5.43;;
68072;SDS011;54862;51.502;7.446;2023-06-10T10:24:33;10.60;;;6.13;;
68072;SDS011;54862;51.502;7.446;2023-06-10T10:27:01;9.63;;;5.93;;
68072;SDS011;54862;51.502;7.446;2023-06-10T10:29:33;9.65;;;6.10;;
68072;SDS011;54862;51.502;7.446;2023-06-10T10:32:02;11.40;;;5.72;;
68072;SDS011;54862;51.502;7.446;2023-06-10T10:34:34;11.18;;;6.22;;
68072;SDS011;54862;51.502;7.446;2023-06-10T10:37:01;10.07;;;6.05;;
68072;SDS011;54862;51.502;7.446;2023-06-10T10:39:28;10.20;;;6.32;;
68072;SDS011;54862;51.502;7.446;2023-06-10T10:41:56;11.13;;;6.10;;
68072;SDS011;54862;51.502;7.446;2023-06-10T10:44:25;11.60;;;5.70;;
68072;SDS011;54862;51.502;7.446;2023-06-10T10:46:51;11.98;;;5.75;;
68072;SDS011;54862;51.502;7.446;2023-06-10T10:49:17;10.02;;;6.20;;
68072;SDS011;54862;51.502;7.446;2023-06-10T10:51:59;10.13;;;5.75;;
68072;SDS011;54862;51.502;7.446;2023-06-10T10:54:29;10.70;;;6.40;;
68072;SDS011;54862;51.502;7.446;2023-06-10T10:57:11;11.90;;;6.25;;
68072;SDS011;54862;51.502;7.446;2023-06-10T10:59:56;9.65;;;6.00;;
68072;SDS011;54862;51.502;7.446;2023-06-10T11:05:09;9.82;;;5.85;;
68072;SDS011;54862;51.502;7.446;2023-06-10T11:07:37;9.85;;;6.03;;
68072;SDS011;54862;51.502;7.446;2023-06-10T11:10:11;11.88;;;6.15;;
68072;SDS011;54862;51.502;7.446;2023-06-10T11:15:06;13.63;;;6.90;;
68072;SDS011;54862;51.502;7.446;2023-06-10T11:17:34;9.20;;;5.88;;
68072;SDS011;54862;51.502;7.446;2023-06-10T11:20:00;12.30;;;7.10;;
68072;SDS011;54862;51.502;7.446;2023-06-10T11:22:27;9.30;;;5.95;;
68072;SDS011;54862;51.502;7.446;2023-06-10T11:24:53;10.50;;;5.88;;
68072;SDS011;54862;51.502;7.446;2023-06-10T11:27:24;9.95;;;5.93;;
68072;SDS011;54862;51.502;7.446;2023-06-10T11:29:57;12.77;;;6.82;;
68072;SDS011;54862;51.502;7.446;2023-06-10T11:32:30;10.95;;;6.10;;
68072;SDS011;54862;51.502;7.446;2023-06-10T11:34:57;11.38;;;6.05;;
68072;SDS011;54862;51.502;7.446;2023-06-10T11:37:23;9.10;;;5.68;;
68072;SDS011;54862;51.502;7.446;2023-06-10T11:39:53;9.90;;;5.97;;
68072;SDS011;54862;51.502;7.446;2023-06-10T11:42:19;11.55;;;6.10;;
68072;SDS011;54862;51.502;7.446;2023-06-10T11:44:51;9.68;;;5.97;;
68072;SDS011;54862;51.502;7.446;2023-06-10T11:47:18;10.65;;;6.07;;
68072;SDS011;54862;51.502;7.446;2023-06-10T11:49:55;9.05;;;5.65;;
68072;SDS011;54862;51.502;7.446;2023-06-10T11:52:28;8.85;;;5.60;;
68072;SDS011;54862;51.502;7.446;2023-06-10T11:54:56;9.75;;;5.47;;
68072;SDS011;54862;51.502;7.446;2023-06-10T11:57:25;9.50;;;5.47;;
68072;SDS011;54862;51.502;7.446;2023-06-10T11:59:51;10.70;;;5.80;;
68072;SDS011;54862;51.502;7.446;2023-06-10T12:02:17;9.00;;;5.75;;
68072;SDS011;54862;51.502;7.446;2023-06-10T12:04:44;11.00;;;5.82;;
68072;SDS011;54862;51.502;7.446;2023-06-10T12:07:18;9.13;;;5.68;;
68072;SDS011;54862;51.502;7.446;2023-06-10T12:12:13;10.52;;;6.05;;
68072;SDS011;54862;51.502;7.446;2023-06-10T12:19:59;10.43;;;5.50;;
68072;SDS011;54862;51.502;7.446;2023-06-10T12:22:25;11.27;;;5.55;;
68072;SDS011;54862;51.502;7.446;2023-06-10T12:27:26;11.88;;;5.82;;
68072;SDS011;54862;51.502;7.446;2023-06-10T12:29:54;9.23;;;5.68;;
68072;SDS011;54862;51.502;7.446;2023-06-10T12:32:21;11.73;;;6.13;;
68072;SDS011;54862;51.502;7.446;2023-06-10T12:35:01;10.93;;;5.68;;
68072;SDS011;54862;51.502;7.446;2023-06-10T12:37:30;9.48;;;6.07;;
68072;SDS011;54862;51.502;7.446;2023-06-10T12:39:59;11.15;;;5.40;;
68072;SDS011;54862;51.502;7.446;2023-06-10T12:42:26;10.13;;;5.60;;
68072;SDS011;54862;51.502;7.446;2023-06-10T12:44:54;9.90;;;6.18;;
68072;SDS011;54862;51.502;7.446;2023-06-10T12:47:28;10.07;;;5.80;;
68072;SDS011;54862;51.502;7.446;2023-06-10T12:49:57;9.02;;;5.95;;
68072;SDS011;54862;51.502;7.446;2023-06-10T12:52:26;9.68;;;5.57;;
68072;SDS011;54862;51.502;7.446;2023-06-10T12:54:53;10.95;;;5.97;;
68072;SDS011;54862;51.502;7.446;2023-06-10T12:57:19;9.55;;;5.82;;
68072;SDS011;54862;51.502;7.446;2023-06-10T12:59:45;9.38;;;5.75;;
68072;SDS011;54862;51.502;7.446;2023-06-10T13:02:17;8.47;;;5.90;;
68072;SDS011;54862;51.502;7.446;2023-06-10T13:04:43;10.93;;;6.32;;
68072;SDS011;54862;51.502;7.446;2023-06-10T13:07:09;8.88;;;5.88;;
68072;SDS011;54862;51.502;7.446;2023-06-10T13:09:35;10.35;;;6.18;;
68072;SDS011;54862;51.502;7.446;2023-06-10T13:12:02;11.05;;;6.18;;
68072;SDS011;54862;51.502;7.446;2023-06-10T13:14:28;11.05;;;6.18;;
68072;SDS011;54862;51.502;7.446;2023-06-10T13:16:56;8.80;;;6.15;;
68072;SDS011;54862;51.502;7.446;2023-06-10T13:19:22;11.13;;;6.57;;
68072;SDS011;54862;51.502;7.446;2023-06-10T13:21:48;10.13;;;5.97;;
68072;SDS011;54862;51.502;7.446;2023-06-10T13:24:14;8.73;;;5.88;;
68072;SDS011;54862;51.502;7.446;2023-06-10T13:26:40;10.73;;;6.28;;
68072;SDS011;54862;51.502;7.446;2023-06-10T13:29:06;9.02;;;5.80;;
68072;SDS011;54862;51.502;7.446;2023-06-10T13:31:38;10.07;;;5.93;;
68072;SDS011;54862;51.502;7.446;2023-06-10T13:34:07;8.52;;;5.60;;
68072;SDS011;54862;51.502;7.446;2023-06-10T13:36:33;8.70;;;5.63;;
68072;SDS011;54862;51.502;7.446;2023-06-10T13:38:59;10.23;;;6.03;;
68072;SDS011;54862;51.502;7.446;2023-06-10T13:41:25;8.75;;;6.00;;
68072;SDS011;54862;51.502;7.446;2023-06-10T13:43:53;10.63;;;5.20;;
68072;SDS011;54862;51.502;7.446;2023-06-10T13:46:19;9.35;;;5.72;;
68072;SDS011;54862;51.502;7.446;2023-06-10T13:48:49;9.38;;;5.78;;
68072;SDS011;54862;51.502;7.446;2023-06-10T13:51:15;9.82;;;6.20;;
68072;SDS011;54862;51.502;7.446;2023-06-10T13:53:41;8.13;;;5.40;;
68072;SDS011;54862;51.502;7.446;2023-06-10T13:56:10;9.52;;;6.13;;
68072;SDS011;54862;51.502;7.446;2023-06-10T13:58:36;9.35;;;5.82;;
68072;SDS011;54862;51.502;7.446;2023-06-10T14:01:05;10.80;;;5.43;;
68072;SDS011;54862;51.502;7.446;2023-06-10T14:03:31;8.98;;;6.05;;
68072;SDS011;54862;51.502;7.446;2023-06-10T14:05:57;10.50;;;5.90;;
68072;SDS011;54862;51.502;7.446;2023-06-10T14:08:23;9.38;;;5.55;;
68072;SDS011;54862;51.502;7.446;2023-06-10T14:10:49;10.38;;;5.93;;
68072;SDS011;54862;51.502;7.446;2023-06-10T14:13:18;9.05;;;5.90;;
68072;SDS011;54862;51.502;7.446;2023-06-10T14:15:47;9.38;;;5.50;;
68072;SDS011;54862;51.502;7.446;2023-06-10T14:18:13;8.85;;;5.82;;
68072;SDS011;54862;51.502;7.446;2023-06-10T14:20:41;10.40;;;6.10;;
68072;SDS011;54862;51.502;7.446;2023-06-10T14:23:09;9.65;;;5.70;;
68072;SDS011;54862;51.502;7.446;2023-06-10T14:25:35;8.07;;;5.30;;
68072;SDS011;54862;51.502;7.446;2023-06-10T14:28:02;12.05;;;5.82;;
68072;SDS011;54862;51.502;7.446;2023-06-10T14:30:28;9.68;;;5.50;;
68072;SDS011;54862;51.502;7.446;2023-06-10T14:32:54;9.43;;;5.65;;
68072;SDS011;54862;51.502;7.446;2023-06-10T14:35:19;9.43;;;6.03;;
68072;SDS011;54862;51.502;7.446;2023-06-10T14:37:46;8.35;;;5.22;;
68072;SDS011;54862;51.502;7.446;2023-06-10T14:40:14;12.30;;;5.97;;
68072;SDS011;54862;51.502;7.446;2023-06-10T14:42:43;8.27;;;5.35;;
68072;SDS011;54862;51.502;7.446;2023-06-10T14:45:09;10.77;;;5.93;;
68072;SDS011;54862;51.502;7.446;2023-06-10T14:47:35;9.80;;;5.32;;
68072;SDS011;54862;51.502;7.446;2023-06-10T14:50:01;9.63;;;5.90;;
68072;SDS011;54862;51.502;7.446;2023-06-10T14:52:27;9.20;;;5.57;;
68072;SDS011;54862;51.502;7.446;2023-06-10T14:54:55;10.00;;;5.93;;